sensor_id;sensor_type;location;lat;lon;timestamp;P1;durP1;ratioP1;P2;durP2;ratioP2
65641;SDS011;52340;-6.720;108.544;2024-03-08T00:00:43;66.70;;;46.03;;
65641;SDS011;52340;-6.720;108.544;2024-03-08T00:01:45;67.53;;;46.85;;
65641;SDS011;52340;-6.720;108.544;2024-03-08T00:02:46;75.47;;;52.95;;
65641;SDS011;52340;-6.720;108.544;2024-03-08T00:03:48;73.20;;;52.30;;
65641;SDS011;52340;-6.720;108.544;2024-03-08T00:04:50;69.82;;;48.67;;
65641;SDS011;52340;-6.720;108.544;2024-03-08T00:05:54;75.53;;;54.85;;
65641;SDS011;52340;-6.720;108.544;2024-03-08T00:06:56;81.45;;;54.42;;
65641;SDS011;52340;-6.720;108.544;2024-03-08T00:07:57;81.18;;;59.50;;
65641;SDS011;52340;-6.720;108.544;2024-03-08T00:08:59;89.80;;;60.85;;
65641;SDS011;52340;-6.720;108.544;2024-03-08T00:10:01;90.35;;;62.47;;
65641;SDS011;52340;-6.720;108.544;2024-03-08T00:11:04;99.80;;;66.32;;
65641;SDS011;52340;-6.720;108.544;2024-03-08T00:12:06;88.97;;;60.03;;
65641;SDS011;52340;-6.720;108.544;2024-03-08T00:13:08;93.00;;;63.42;;
65641;SDS011;52340;-6.720;108.544;2024-03-08T00:14:10;94.03;;;63.72;;
65641;SDS011;52340;-6.720;108.544;2024-03-08T00:15:11;101.07;;;65.13;;
65641;SDS011;52340;-6.720;108.544;2024-03-08T00:16:14;103.03;;;66.70;;
65641;SDS011;52340;-6.720;108.544;2024-03-08T00:17:16;103.03;;;66.25;;
65641;SDS011;52340;-6.720;108.544;2024-03-08T00:18:17;103.32;;;64.72;;
65641;SDS011;52340;-6.720;108.544;2024-03-08T00:19:19;100.63;;;66.75;;
65641;SDS011;52340;-6.720;108.544;2024-03-08T00:20:21;97.43;;;63.88;;
65641;SDS011;52340;-6.720;108.544;2024-03-08T00:21:23;97.45;;;65.93;;
65641;SDS011;52340;-6.720;108.544;2024-03-08T00:22:24;108.22;;;67.93;;
65641;SDS011;52340;-6.720;108.544;2024-03-08T00:23:26;103.93;;;68.68;;
65641;SDS011;52340;-6.720;108.544;2024-03-08T00:24:28;100.72;;;70.97;;
65641;SDS011;52340;-6.720;108.544;2024-03-08T00:25:29;98.60;;;66.32;;
65641;SDS011;52340;-6.720;108.544;2024-03-08T00:26:33;93.85;;;64.28;;
65641;SDS011;52340;-6.720;108.544;2024-03-08T00:27:35;108.55;;;68.32;;
65641;SDS011;52340;-6.720;108.544;2024-03-08T00:28:37;99.25;;;66.32;;
65641;SDS011;52340;-6.720;108.544;2024-03-08T00:29:38;95.95;;;65.70;;
65641;SDS011;52340;-6.720;108.544;2024-03-08T00:30:40;110.82;;;76.07;;
65641;SDS011;52340;-6.720;108.544;2024-03-08T00:31:42;108.10;;;71.88;;
65641;SDS011;52340;-6.720;108.544;2024-03-08T00:32:44;116.60;;;81.32;;
65641;SDS011;52340;-6.720;108.544;2024-03-08T00:33:45;111.47;;;77.13;;
65641;SDS011;52340;-6.720;108.544;2024-03-08T00:34:47;117.85;;;80.50;;
65641;SDS011;52340;-6.720;108.544;2024-03-08T00:35:49;117.85;;;79.68;;
65641;SDS011;52340;-6.720;108.544;2024-03-08T00:36:51;113.60;;;78.50;;
65641;SDS011;52340;-6.720;108.544;2024-03-08T00:37:52;136.90;;;100.38;;
65641;SDS011;52340;-6.720;108.544;2024-03-08T00:38:54;127.80;;;90.53;;
65641;SDS011;52340;-6.720;108.544;2024-03-08T00:39:56;122.70;;;90.10;;
65641;SDS011;52340;-6.720;108.544;2024-03-08T00:40:57;128.88;;;95.18;;
65641;SDS011;52340;-6.720;108.544;2024-03-08T00:42:01;134.18;;;94.97;;
65641;SDS011;52340;-6.720;108.544;2024-03-08T00:43:03;130.35;;;97.13;;
65641;SDS011;52340;-6.720;108.544;2024-03-08T00:44:04;144.45;;;101.70;;
65641;SDS011;52340;-6.720;108.544;2024-03-08T00:45:06;136.35;;;101.10;;
65641;SDS011;52340;-6.720;108.544;2024-03-08T00:46:08;153.13;;;110.90;;
65641;SDS011;52340;-6.720;108.544;2024-03-08T00:47:10;145.25;;;107.03;;
65641;SDS011;52340;-6.720;108.544;2024-03-08T00:48:12;138.30;;;102.05;;
65641;SDS011;52340;-6.720;108.544;2024-03-08T00:49:14;138.40;;;102.53;;
65641;SDS011;52340;-6.720;108.544;2024-03-08T00:50:15;141.82;;;101.72;;
65641;SDS011;52340;-6.720;108.544;2024-03-08T00:51:17;128.18;;;96.68;;
65641;SDS011;52340;-6.720;108.544;2024-03-08T00:52:20;133.70;;;95.70;;
65641;SDS011;52340;-6.720;108.544;2024-03-08T00:53:22;129.45;;;95.18;;
65641;SDS011;52340;-6.720;108.544;2024-03-08T00:54:23;122.47;;;89.68;;
65641;SDS011;52340;-6.720;108.544;2024-03-08T00:55:25;130.35;;;94.32;;
65641;SDS011;52340;-6.720;108.544;2024-03-08T00:56:27;128.35;;;95.63;;
65641;SDS011;52340;-6.720;108.544;2024-03-08T00:57:30;131.10;;;92.07;;
65641;SDS011;52340;-6.720;108.544;2024-03-08T00:58:32;117.38;;;86.82;;
65641;SDS011;52340;-6.720;108.544;2024-03-08T00:59:34;123.70;;;84.75;;
65641;SDS011;52340;-6.720;108.544;2024-03-08T01:00:35;118.20;;;83.95;;
65641;SDS011;52340;-6.720;108.544;2024-03-08T01:01:37;107.75;;;77.72;;
65641;SDS011;52340;-6.720;108.544;2024-03-08T01:02:39;108.95;;;75.50;;
65641;SDS011;52340;-6.720;108.544;2024-03-08T01:03:43;95.57;;;68.82;;
65641;SDS011;52340;-6.720;108.544;2024-03-08T01:04:45;95.63;;;71.70;;
65641;SDS011;52340;-6.720;108.544;2024-03-08T01:05:46;91.50;;;67.55;;
65641;SDS011;52340;-6.720;108.544;2024-03-08T01:06:48;88.78;;;65.55;;
65641;SDS011;52340;-6.720;108.544;2024-03-08T01:07:50;90.82;;;65.53;;
65641;SDS011;52340;-6.720;108.544;2024-03-08T01:08:54;78.00;;;60.30;;
65641;SDS011;52340;-6.720;108.544;2024-03-08T01:09:56;81.45;;;62.03;;
65641;SDS011;52340;-6.720;108.544;2024-03-08T01:11:00;87.90;;;62.53;;
65641;SDS011;52340;-6.720;108.544;2024-03-08T01:12:01;78.20;;;60.13;;
65641;SDS011;52340;-6.720;108.544;2024-03-08T01:13:05;74.32;;;56.95;;
65641;SDS011;52340;-6.720;108.544;2024-03-08T01:14:07;80.53;;;58.45;;
65641;SDS011;52340;-6.720;108.544;2024-03-08T01:15:09;76.38;;;58.45;;
65641;SDS011;52340;-6.720;108.544;2024-03-08T01:16:11;74.72;;;56.13;;
65641;SDS011;52340;-6.720;108.544;2024-03-08T01:17:13;74.93;;;54.97;;
65641;SDS011;52340;-6.720;108.544;2024-03-08T01:18:14;72.35;;;55.15;;
65641;SDS011;52340;-6.720;108.544;2024-03-08T01:19:16;73.40;;;53.58;;
65641;SDS011;52340;-6.720;108.544;2024-03-08T01:20:18;70.65;;;54.17;;
65641;SDS011;52340;-6.720;108.544;2024-03-08T01:21:20;71.80;;;52.67;;
65641;SDS011;52340;-6.720;108.544;2024-03-08T01:22:22;68.60;;;52.50;;
65641;SDS011;52340;-6.720;108.544;2024-03-08T01:23:23;69.15;;;54.65;;
65641;SDS011;52340;-6.720;108.544;2024-03-08T01:24:25;69.70;;;52.42;;
65641;SDS011;52340;-6.720;108.544;2024-03-08T01:25:27;74.07;;;52.70;;
65641;SDS011;52340;-6.720;108.544;2024-03-08T01:26:29;67.53;;;51.75;;
65641;SDS011;52340;-6.720;108.544;2024-03-08T01:27:30;69.30;;;50.75;;
65641;SDS011;52340;-6.720;108.544;2024-03-08T01:28:34;67.55;;;52.03;;
65641;SDS011;52340;-6.720;108.544;2024-03-08T01:29:36;71.28;;;50.38;;
65641;SDS011;52340;-6.720;108.544;2024-03-08T01:30:38;63.80;;;50.72;;
65641;SDS011;52340;-6.720;108.544;2024-03-08T01:31:39;68.28;;;51.28;;
65641;SDS011;52340;-6.720;108.544;2024-03-08T01:32:41;61.35;;;47.53;;
65641;SDS011;52340;-6.720;108.544;2024-03-08T01:33:43;67.28;;;48.85;;
65641;SDS011;52340;-6.720;108.544;2024-03-08T01:34:44;62.15;;;46.50;;
65641;SDS011;52340;-6.720;108.544;2024-03-08T01:35:46;58.53;;;45.22;;
65641;SDS011;52340;-6.720;108.544;2024-03-08T01:36:48;59.35;;;44.15;;
65641;SDS011;52340;-6.720;108.544;2024-03-08T01:37:50;56.45;;;45.22;;
65641;SDS011;52340;-6.720;108.544;2024-03-08T01:38:51;59.55;;;45.65;;
65641;SDS011;52340;-6.720;108.544;2024-03-08T01:39:53;56.60;;;46.45;;
65641;SDS011;52340;-6.720;108.544;2024-03-08T01:40:55;54.75;;;44.88;;
65641;SDS011;52340;-6.720;108.544;2024-03-08T01:41:57;56.20;;;43.00;;
65641;SDS011;52340;-6.720;108.544;2024-03-08T01:44:20;56.70;;;41.97;;
65641;SDS011;52340;-6.720;108.544;2024-03-08T01:45:22;51.78;;;39.92;;
65641;SDS011;52340;-6.720;108.544;2024-03-08T01:46:23;54.10;;;42.00;;
65641;SDS011;52340;-6.720;108.544;2024-03-08T01:47:25;55.03;;;41.85;;
65641;SDS011;52340;-6.720;108.544;2024-03-08T01:48:27;49.50;;;39.75;;
65641;SDS011;52340;-6.720;108.544;2024-03-08T01:49:30;52.13;;;39.70;;
65641;SDS011;52340;-6.720;108.544;2024-03-08T01:50:32;49.28;;;38.10;;
65641;SDS011;52340;-6.720;108.544;2024-03-08T01:51:33;50.70;;;39.95;;
65641;SDS011;52340;-6.720;108.544;2024-03-08T01:52:35;47.88;;;38.30;;
65641;SDS011;52340;-6.720;108.544;2024-03-08T01:53:37;50.78;;;39.28;;
65641;SDS011;52340;-6.720;108.544;2024-03-08T01:54:39;47.38;;;38.10;;
65641;SDS011;52340;-6.720;108.544;2024-03-08T01:55:41;51.40;;;37.03;;
65641;SDS011;52340;-6.720;108.544;2024-03-08T01:56:43;47.00;;;36.80;;
65641;SDS011;52340;-6.720;108.544;2024-03-08T01:57:45;48.45;;;38.55;;
65641;SDS011;52340;-6.720;108.544;2024-03-08T01:58:47;48.55;;;36.83;;
65641;SDS011;52340;-6.720;108.544;2024-03-08T01:59:50;46.58;;;37.08;;
65641;SDS011;52340;-6.720;108.544;2024-03-08T02:00:52;50.28;;;37.13;;
65641;SDS011;52340;-6.720;108.544;2024-03-08T02:01:54;47.85;;;36.17;;
65641;SDS011;52340;-6.720;108.544;2024-03-08T02:02:57;47.33;;;36.60;;
65641;SDS011;52340;-6.720;108.544;2024-03-08T02:03:58;44.75;;;35.25;;
65641;SDS011;52340;-6.720;108.544;2024-03-08T02:05:00;44.50;;;34.55;;
65641;SDS011;52340;-6.720;108.544;2024-03-08T02:06:02;43.33;;;34.88;;
65641;SDS011;52340;-6.720;108.544;2024-03-08T02:07:04;45.55;;;36.38;;
65641;SDS011;52340;-6.720;108.544;2024-03-08T02:08:06;40.67;;;34.55;;
65641;SDS011;52340;-6.720;108.544;2024-03-08T02:09:09;43.80;;;35.08;;
65641;SDS011;52340;-6.720;108.544;2024-03-08T02:10:11;45.15;;;34.50;;
65641;SDS011;52340;-6.720;108.544;2024-03-08T02:11:13;43.40;;;34.53;;
65641;SDS011;52340;-6.720;108.544;2024-03-08T02:12:15;45.33;;;35.50;;
65641;SDS011;52340;-6.720;108.544;2024-03-08T02:13:17;43.30;;;34.80;;
65641;SDS011;52340;-6.720;108.544;2024-03-08T02:14:19;47.30;;;36.65;;
65641;SDS011;52340;-6.720;108.544;2024-03-08T02:15:22;53.80;;;42.10;;
65641;SDS011;52340;-6.720;108.544;2024-03-08T02:16:24;55.40;;;42.85;;
65641;SDS011;52340;-6.720;108.544;2024-03-08T02:17:26;48.33;;;38.95;;
65641;SDS011;52340;-6.720;108.544;2024-03-08T02:18:28;60.35;;;41.20;;
65641;SDS011;52340;-6.720;108.544;2024-03-08T02:19:30;52.67;;;38.28;;
65641;SDS011;52340;-6.720;108.544;2024-03-08T02:20:36;72.05;;;44.40;;
65641;SDS011;52340;-6.720;108.544;2024-03-08T02:21:37;61.72;;;39.90;;
65641;SDS011;52340;-6.720;108.544;2024-03-08T02:22:39;57.72;;;39.00;;
65641;SDS011;52340;-6.720;108.544;2024-03-08T02:23:44;59.42;;;39.38;;
65641;SDS011;52340;-6.720;108.544;2024-03-08T02:24:45;59.75;;;36.88;;
65641;SDS011;52340;-6.720;108.544;2024-03-08T02:25:48;55.00;;;37.35;;
65641;SDS011;52340;-6.720;108.544;2024-03-08T02:26:49;54.95;;;36.50;;
65641;SDS011;52340;-6.720;108.544;2024-03-08T02:27:51;52.67;;;35.80;;
65641;SDS011;52340;-6.720;108.544;2024-03-08T02:28:53;47.88;;;34.10;;
65641;SDS011;52340;-6.720;108.544;2024-03-08T02:29:55;45.95;;;33.78;;
65641;SDS011;52340;-6.720;108.544;2024-03-08T02:30:57;47.75;;;33.92;;
65641;SDS011;52340;-6.720;108.544;2024-03-08T02:31:59;44.13;;;33.03;;
65641;SDS011;52340;-6.720;108.544;2024-03-08T02:33:01;43.80;;;32.85;;
65641;SDS011;52340;-6.720;108.544;2024-03-08T02:34:02;42.65;;;32.20;;
65641;SDS011;52340;-6.720;108.544;2024-03-08T02:35:04;42.75;;;31.15;;
65641;SDS011;52340;-6.720;108.544;2024-03-08T02:36:09;42.45;;;33.00;;
65641;SDS011;52340;-6.720;108.544;2024-03-08T02:37:10;41.17;;;32.42;;
65641;SDS011;52340;-6.720;108.544;2024-03-08T02:38:13;40.63;;;31.25;;
65641;SDS011;52340;-6.720;108.544;2024-03-08T02:39:16;37.75;;;30.25;;
65641;SDS011;52340;-6.720;108.544;2024-03-08T02:40:17;39.10;;;30.33;;
65641;SDS011;52340;-6.720;108.544;2024-03-08T02:41:19;37.30;;;30.45;;
65641;SDS011;52340;-6.720;108.544;2024-03-08T02:42:21;37.42;;;29.40;;
65641;SDS011;52340;-6.720;108.544;2024-03-08T02:43:23;41.05;;;31.10;;
65641;SDS011;52340;-6.720;108.544;2024-03-08T02:44:25;39.67;;;31.90;;
65641;SDS011;52340;-6.720;108.544;2024-03-08T02:45:26;36.60;;;30.33;;
65641;SDS011;52340;-6.720;108.544;2024-03-08T02:46:30;38.72;;;29.40;;
65641;SDS011;52340;-6.720;108.544;2024-03-08T02:47:35;37.45;;;29.27;;
65641;SDS011;52340;-6.720;108.544;2024-03-08T02:48:37;37.80;;;30.00;;
65641;SDS011;52340;-6.720;108.544;2024-03-08T02:49:39;38.50;;;30.40;;
65641;SDS011;52340;-6.720;108.544;2024-03-08T02:50:41;38.20;;;30.83;;
65641;SDS011;52340;-6.720;108.544;2024-03-08T02:51:44;38.45;;;29.20;;
65641;SDS011;52340;-6.720;108.544;2024-03-08T02:52:46;35.10;;;27.38;;
65641;SDS011;52340;-6.720;108.544;2024-03-08T02:53:48;38.50;;;29.20;;
65641;SDS011;52340;-6.720;108.544;2024-03-08T02:54:50;42.65;;;29.92;;
65641;SDS011;52340;-6.720;108.544;2024-03-08T02:55:52;37.97;;;28.75;;
65641;SDS011;52340;-6.720;108.544;2024-03-08T02:56:53;35.50;;;28.30;;
65641;SDS011;52340;-6.720;108.544;2024-03-08T02:57:55;37.97;;;29.10;;
65641;SDS011;52340;-6.720;108.544;2024-03-08T02:58:57;37.10;;;29.50;;
65641;SDS011;52340;-6.720;108.544;2024-03-08T02:59:59;33.55;;;27.73;;
65641;SDS011;52340;-6.720;108.544;2024-03-08T03:01:01;36.65;;;29.42;;
65641;SDS011;52340;-6.720;108.544;2024-03-08T03:02:05;37.10;;;29.88;;
65641;SDS011;52340;-6.720;108.544;2024-03-08T03:03:07;34.47;;;28.10;;
65641;SDS011;52340;-6.720;108.544;2024-03-08T03:04:08;36.33;;;29.23;;
65641;SDS011;52340;-6.720;108.544;2024-03-08T03:05:10;35.35;;;28.55;;
65641;SDS011;52340;-6.720;108.544;2024-03-08T03:06:15;33.85;;;27.17;;
65641;SDS011;52340;-6.720;108.544;2024-03-08T03:07:18;33.70;;;27.30;;
65641;SDS011;52340;-6.720;108.544;2024-03-08T03:08:20;34.80;;;27.05;;
65641;SDS011;52340;-6.720;108.544;2024-03-08T03:09:22;32.47;;;26.05;;
65641;SDS011;52340;-6.720;108.544;2024-03-08T03:10:24;34.72;;;27.27;;
65641;SDS011;52340;-6.720;108.544;2024-03-08T03:11:25;32.45;;;25.65;;
65641;SDS011;52340;-6.720;108.544;2024-03-08T03:12:27;33.33;;;27.23;;
65641;SDS011;52340;-6.720;108.544;2024-03-08T03:13:29;32.85;;;27.10;;
65641;SDS011;52340;-6.720;108.544;2024-03-08T03:14:31;34.17;;;27.48;;
65641;SDS011;52340;-6.720;108.544;2024-03-08T03:15:32;33.30;;;26.50;;
65641;SDS011;52340;-6.720;108.544;2024-03-08T03:16:34;35.65;;;28.45;;
65641;SDS011;52340;-6.720;108.544;2024-03-08T03:17:36;37.55;;;29.23;;
65641;SDS011;52340;-6.720;108.544;2024-03-08T03:18:38;34.60;;;27.92;;
65641;SDS011;52340;-6.720;108.544;2024-03-08T03:19:40;34.83;;;27.45;;
65641;SDS011;52340;-6.720;108.544;2024-03-08T03:20:42;35.58;;;28.35;;
65641;SDS011;52340;-6.720;108.544;2024-03-08T03:21:43;34.60;;;26.92;;
65641;SDS011;52340;-6.720;108.544;2024-03-08T03:22:47;33.95;;;27.38;;
65641;SDS011;52340;-6.720;108.544;2024-03-08T03:23:49;32.85;;;26.20;;
65641;SDS011;52340;-6.720;108.544;2024-03-08T03:24:50;33.55;;;26.45;;
65641;SDS011;52340;-6.720;108.544;2024-03-08T03:25:52;32.20;;;26.48;;
65641;SDS011;52340;-6.720;108.544;2024-03-08T03:26:54;33.47;;;26.40;;
65641;SDS011;52340;-6.720;108.544;2024-03-08T03:27:56;32.03;;;26.30;;
65641;SDS011;52340;-6.720;108.544;2024-03-08T03:28:58;32.42;;;27.20;;
65641;SDS011;52340;-6.720;108.544;2024-03-08T03:29:59;31.63;;;25.98;;
65641;SDS011;52340;-6.720;108.544;2024-03-08T03:31:01;32.08;;;25.70;;
65641;SDS011;52340;-6.720;108.544;2024-03-08T03:32:03;30.55;;;25.42;;
65641;SDS011;52340;-6.720;108.544;2024-03-08T03:33:05;33.05;;;25.50;;
65641;SDS011;52340;-6.720;108.544;2024-03-08T03:34:07;31.95;;;26.35;;
65641;SDS011;52340;-6.720;108.544;2024-03-08T03:35:09;33.85;;;26.20;;
65641;SDS011;52340;-6.720;108.544;2024-03-08T03:36:11;34.22;;;26.85;;
65641;SDS011;52340;-6.720;108.544;2024-03-08T03:37:13;32.45;;;26.23;;
65641;SDS011;52340;-6.720;108.544;2024-03-08T03:38:19;34.15;;;26.23;;
65641;SDS011;52340;-6.720;108.544;2024-03-08T03:39:21;32.63;;;26.35;;
65641;SDS011;52340;-6.720;108.544;2024-03-08T03:40:23;33.58;;;25.92;;
65641;SDS011;52340;-6.720;108.544;2024-03-08T03:41:25;36.03;;;26.83;;
65641;SDS011;52340;-6.720;108.544;2024-03-08T03:42:27;35.08;;;26.65;;
65641;SDS011;52340;-6.720;108.544;2024-03-08T03:43:29;32.65;;;25.95;;
65641;SDS011;52340;-6.720;108.544;2024-03-08T03:44:31;32.13;;;25.10;;
65641;SDS011;52340;-6.720;108.544;2024-03-08T03:45:35;30.23;;;24.95;;
65641;SDS011;52340;-6.720;108.544;2024-03-08T03:46:39;32.65;;;24.95;;
65641;SDS011;52340;-6.720;108.544;2024-03-08T03:47:43;30.15;;;24.80;;
65641;SDS011;52340;-6.720;108.544;2024-03-08T03:48:45;30.75;;;24.73;;
65641;SDS011;52340;-6.720;108.544;2024-03-08T03:49:47;30.25;;;24.17;;
65641;SDS011;52340;-6.720;108.544;2024-03-08T03:50:49;29.58;;;23.85;;
65641;SDS011;52340;-6.720;108.544;2024-03-08T03:51:53;27.98;;;23.52;;
65641;SDS011;52340;-6.720;108.544;2024-03-08T03:52:55;30.38;;;23.95;;
65641;SDS011;52340;-6.720;108.544;2024-03-08T03:53:58;33.22;;;25.08;;
65641;SDS011;52340;-6.720;108.544;2024-03-08T03:55:00;33.17;;;24.92;;
65641;SDS011;52340;-6.720;108.544;2024-03-08T03:56:02;32.20;;;24.88;;
65641;SDS011;52340;-6.720;108.544;2024-03-08T03:57:04;33.05;;;24.33;;
65641;SDS011;52340;-6.720;108.544;2024-03-08T03:58:06;29.52;;;24.73;;
65641;SDS011;52340;-6.720;108.544;2024-03-08T03:59:08;31.75;;;24.80;;
65641;SDS011;52340;-6.720;108.544;2024-03-08T04:00:10;32.05;;;24.80;;
65641;SDS011;52340;-6.720;108.544;2024-03-08T04:01:12;30.38;;;24.02;;
65641;SDS011;52340;-6.720;108.544;2024-03-08T04:02:14;30.70;;;24.73;;
65641;SDS011;52340;-6.720;108.544;2024-03-08T04:03:15;32.25;;;25.33;;
65641;SDS011;52340;-6.720;108.544;2024-03-08T04:04:17;30.08;;;24.42;;
65641;SDS011;52340;-6.720;108.544;2024-03-08T04:05:19;31.15;;;25.17;;
65641;SDS011;52340;-6.720;108.544;2024-03-08T04:06:21;31.35;;;23.95;;
65641;SDS011;52340;-6.720;108.544;2024-03-08T04:07:23;34.95;;;25.83;;
65641;SDS011;52340;-6.720;108.544;2024-03-08T04:08:24;32.05;;;24.45;;
65641;SDS011;52340;-6.720;108.544;2024-03-08T04:09:28;36.10;;;26.13;;
65641;SDS011;52340;-6.720;108.544;2024-03-08T04:10:30;32.85;;;26.30;;
65641;SDS011;52340;-6.720;108.544;2024-03-08T04:11:32;33.47;;;27.20;;
65641;SDS011;52340;-6.720;108.544;2024-03-08T04:12:34;33.13;;;25.77;;
65641;SDS011;52340;-6.720;108.544;2024-03-08T04:13:35;36.58;;;25.48;;
65641;SDS011;52340;-6.720;108.544;2024-03-08T04:14:38;35.72;;;27.50;;
65641;SDS011;52340;-6.720;108.544;2024-03-08T04:15:49;33.25;;;26.00;;
65641;SDS011;52340;-6.720;108.544;2024-03-08T04:16:51;31.67;;;24.88;;
65641;SDS011;52340;-6.720;108.544;2024-03-08T04:17:52;32.70;;;26.33;;
65641;SDS011;52340;-6.720;108.544;2024-03-08T04:18:54;30.60;;;24.90;;
65641;SDS011;52340;-6.720;108.544;2024-03-08T04:19:56;30.83;;;24.58;;
65641;SDS011;52340;-6.720;108.544;2024-03-08T04:20:58;30.02;;;24.17;;
65641;SDS011;52340;-6.720;108.544;2024-03-08T04:21:59;30.75;;;24.75;;
65641;SDS011;52340;-6.720;108.544;2024-03-08T04:23:01;29.83;;;24.77;;
65641;SDS011;52340;-6.720;108.544;2024-03-08T04:24:03;30.48;;;24.25;;
65641;SDS011;52340;-6.720;108.544;2024-03-08T04:25:08;33.60;;;24.88;;
65641;SDS011;52340;-6.720;108.544;2024-03-08T04:26:10;29.33;;;24.33;;
65641;SDS011;52340;-6.720;108.544;2024-03-08T04:27:12;33.38;;;24.58;;
65641;SDS011;52340;-6.720;108.544;2024-03-08T04:28:20;28.52;;;24.13;;
65641;SDS011;52340;-6.720;108.544;2024-03-08T04:29:25;30.52;;;24.42;;
65641;SDS011;52340;-6.720;108.544;2024-03-08T04:30:35;29.10;;;22.92;;
65641;SDS011;52340;-6.720;108.544;2024-03-08T04:31:40;35.30;;;25.55;;
65641;SDS011;52340;-6.720;108.544;2024-03-08T04:32:42;29.48;;;24.60;;
65641;SDS011;52340;-6.720;108.544;2024-03-08T04:33:44;28.83;;;23.48;;
65641;SDS011;52340;-6.720;108.544;2024-03-08T04:34:46;28.08;;;23.13;;
65641;SDS011;52340;-6.720;108.544;2024-03-08T04:35:48;27.70;;;23.58;;
65641;SDS011;52340;-6.720;108.544;2024-03-08T04:36:50;32.75;;;22.30;;
65641;SDS011;52340;-6.720;108.544;2024-03-08T04:37:52;26.05;;;22.40;;
65641;SDS011;52340;-6.720;108.544;2024-03-08T04:38:53;28.83;;;23.52;;
65641;SDS011;52340;-6.720;108.544;2024-03-08T04:39:55;27.42;;;22.35;;
65641;SDS011;52340;-6.720;108.544;2024-03-08T04:41:01;27.75;;;22.13;;
65641;SDS011;52340;-6.720;108.544;2024-03-08T04:42:03;27.40;;;21.67;;
65641;SDS011;52340;-6.720;108.544;2024-03-08T04:43:09;27.38;;;22.45;;
65641;SDS011;52340;-6.720;108.544;2024-03-08T04:44:11;27.00;;;22.27;;
65641;SDS011;52340;-6.720;108.544;2024-03-08T04:45:12;28.80;;;23.52;;
65641;SDS011;52340;-6.720;108.544;2024-03-08T04:46:14;28.88;;;23.27;;
65641;SDS011;52340;-6.720;108.544;2024-03-08T04:47:16;29.40;;;23.95;;
65641;SDS011;52340;-6.720;108.544;2024-03-08T04:48:18;28.13;;;23.50;;
65641;SDS011;52340;-6.720;108.544;2024-03-08T04:49:19;28.60;;;22.50;;
65641;SDS011;52340;-6.720;108.544;2024-03-08T04:50:21;30.15;;;22.73;;
65641;SDS011;52340;-6.720;108.544;2024-03-08T04:51:23;33.63;;;25.10;;
65641;SDS011;52340;-6.720;108.544;2024-03-08T04:52:25;27.08;;;22.98;;
65641;SDS011;52340;-6.720;108.544;2024-03-08T04:53:26;26.75;;;22.00;;
65641;SDS011;52340;-6.720;108.544;2024-03-08T04:54:28;30.52;;;22.98;;
65641;SDS011;52340;-6.720;108.544;2024-03-08T04:55:30;25.98;;;22.05;;
65641;SDS011;52340;-6.720;108.544;2024-03-08T04:56:34;26.98;;;22.38;;
65641;SDS011;52340;-6.720;108.544;2024-03-08T04:57:36;30.65;;;23.77;;
65641;SDS011;52340;-6.720;108.544;2024-03-08T04:58:37;27.05;;;22.70;;
65641;SDS011;52340;-6.720;108.544;2024-03-08T04:59:39;30.23;;;23.63;;
65641;SDS011;52340;-6.720;108.544;2024-03-08T05:00:41;29.90;;;22.15;;
65641;SDS011;52340;-6.720;108.544;2024-03-08T05:01:43;32.80;;;23.40;;
65641;SDS011;52340;-6.720;108.544;2024-03-08T05:02:45;30.35;;;24.70;;
65641;SDS011;52340;-6.720;108.544;2024-03-08T05:03:46;28.85;;;23.83;;
65641;SDS011;52340;-6.720;108.544;2024-03-08T05:04:48;30.83;;;24.17;;
65641;SDS011;52340;-6.720;108.544;2024-03-08T05:05:50;32.20;;;23.17;;
65641;SDS011;52340;-6.720;108.544;2024-03-08T05:06:52;27.58;;;22.10;;
65641;SDS011;52340;-6.720;108.544;2024-03-08T05:07:54;29.05;;;22.85;;
65641;SDS011;52340;-6.720;108.544;2024-03-08T05:08:55;36.05;;;22.85;;
65641;SDS011;52340;-6.720;108.544;2024-03-08T05:09:57;36.60;;;23.75;;
65641;SDS011;52340;-6.720;108.544;2024-03-08T05:11:02;30.75;;;24.58;;
65641;SDS011;52340;-6.720;108.544;2024-03-08T05:12:06;27.33;;;23.05;;
65641;SDS011;52340;-6.720;108.544;2024-03-08T05:13:08;28.90;;;22.92;;
65641;SDS011;52340;-6.720;108.544;2024-03-08T05:14:10;29.58;;;23.35;;
65641;SDS011;52340;-6.720;108.544;2024-03-08T05:15:12;27.88;;;22.35;;
65641;SDS011;52340;-6.720;108.544;2024-03-08T05:16:14;28.35;;;22.70;;
65641;SDS011;52340;-6.720;108.544;2024-03-08T05:17:16;27.60;;;22.70;;
65641;SDS011;52340;-6.720;108.544;2024-03-08T05:18:18;24.90;;;21.63;;
65641;SDS011;52340;-6.720;108.544;2024-03-08T05:19:20;26.77;;;22.55;;
65641;SDS011;52340;-6.720;108.544;2024-03-08T05:20:22;29.30;;;22.98;;
65641;SDS011;52340;-6.720;108.544;2024-03-08T05:21:24;28.60;;;23.85;;
65641;SDS011;52340;-6.720;108.544;2024-03-08T05:22:25;29.73;;;23.65;;
65641;SDS011;52340;-6.720;108.544;2024-03-08T05:23:27;29.27;;;23.70;;
65641;SDS011;52340;-6.720;108.544;2024-03-08T05:24:29;31.25;;;24.15;;
65641;SDS011;52340;-6.720;108.544;2024-03-08T05:25:31;31.20;;;24.58;;
65641;SDS011;52340;-6.720;108.544;2024-03-08T05:26:32;34.78;;;25.08;;
65641;SDS011;52340;-6.720;108.544;2024-03-08T05:27:36;30.73;;;24.90;;
65641;SDS011;52340;-6.720;108.544;2024-03-08T05:28:38;30.67;;;23.75;;
65641;SDS011;52340;-6.720;108.544;2024-03-08T05:29:40;27.00;;;23.77;;
65641;SDS011;52340;-6.720;108.544;2024-03-08T05:30:42;29.35;;;24.35;;
65641;SDS011;52340;-6.720;108.544;2024-03-08T05:31:46;30.70;;;24.15;;
65641;SDS011;52340;-6.720;108.544;2024-03-08T05:32:48;29.20;;;24.83;;
65641;SDS011;52340;-6.720;108.544;2024-03-08T05:33:50;28.10;;;23.63;;
65641;SDS011;52340;-6.720;108.544;2024-03-08T05:34:52;30.80;;;24.45;;
65641;SDS011;52340;-6.720;108.544;2024-03-08T05:35:54;30.38;;;24.70;;
65641;SDS011;52340;-6.720;108.544;2024-03-08T05:36:55;29.48;;;24.25;;
65641;SDS011;52340;-6.720;108.544;2024-03-08T05:37:57;30.45;;;24.60;;
65641;SDS011;52340;-6.720;108.544;2024-03-08T05:38:59;33.03;;;25.50;;
65641;SDS011;52340;-6.720;108.544;2024-03-08T05:40:01;29.95;;;25.50;;
65641;SDS011;52340;-6.720;108.544;2024-03-08T05:41:03;31.50;;;26.13;;
65641;SDS011;52340;-6.720;108.544;2024-03-08T05:42:05;34.45;;;27.38;;
65641;SDS011;52340;-6.720;108.544;2024-03-08T05:43:08;32.13;;;26.35;;
65641;SDS011;52340;-6.720;108.544;2024-03-08T05:44:10;35.92;;;28.02;;
65641;SDS011;52340;-6.720;108.544;2024-03-08T05:45:12;34.38;;;28.05;;
65641;SDS011;52340;-6.720;108.544;2024-03-08T05:46:15;35.50;;;28.55;;
65641;SDS011;52340;-6.720;108.544;2024-03-08T05:47:19;36.92;;;29.77;;
65641;SDS011;52340;-6.720;108.544;2024-03-08T05:48:21;34.70;;;28.58;;
65641;SDS011;52340;-6.720;108.544;2024-03-08T05:49:23;39.33;;;31.30;;
65641;SDS011;52340;-6.720;108.544;2024-03-08T05:50:25;37.53;;;32.25;;
65641;SDS011;52340;-6.720;108.544;2024-03-08T05:51:27;37.65;;;31.02;;
65641;SDS011;52340;-6.720;108.544;2024-03-08T05:52:29;38.42;;;32.03;;
65641;SDS011;52340;-6.720;108.544;2024-03-08T05:53:31;40.20;;;32.92;;